Time;durP1;ratioP1;P1;durP2;ratioP2;P2;SDS_P1;SDS_P2;PMS_P1;PMS_P2;Temp;Humidity;BMP_temperature;BMP_pressure;BME280_temperature;BME280_humidity;BME280_pressure;Samples;Min_cycle;Max_cycle;Signal;HPM_P1;HPM_P2
2020/12/09 09:16:38;;;;;;;39.60;13.97;;;2.50;99.90;;;;;;9935761;29;88777;-83
2020/12/09 09:21:41;;;;;;;40.10;13.20;;;2.40;99.90;;;;;;9931823;29;88790;-80
2020/12/09 09:26:42;;;;;;;43.37;12.53;;;2.50;99.90;;;;;;9930757;29;89013;-82
2020/12/09 09:31:45;;;;;;;41.33;11.53;;;2.50;99.90;;;;;;9970157;29;86805;-83
2020/12/09 09:36:46;;;;;;;39.80;13.23;;;2.60;99.90;;;;;;9930187;29;89241;-81
2020/12/09 09:41:48;;;;;;;42.87;13.23;;;2.60;99.90;;;;;;9944472;29;89450;-80
2020/12/09 09:46:50;;;;;;;50.57;13.83;;;2.70;99.90;;;;;;9934601;29;89959;-82
2020/12/09 09:51:52;;;;;;;43.93;13.73;;;2.70;99.90;;;;;;9940110;29;89023;-81
2020/12/09 09:56:54;;;;;;;43.67;13.17;;;2.70;99.90;;;;;;9938211;29;88549;-82
2020/12/09 10:01:56;;;;;;;43.00;13.67;;;2.70;99.90;;;;;;9939838;29;88990;-81
2020/12/09 10:06:58;;;;;;;42.33;13.47;;;2.70;99.90;;;;;;9943324;29;88743;-81
2020/12/09 10:11:59;;;;;;;41.30;12.30;;;2.90;99.90;;;;;;9936516;29;88688;-81
2020/12/09 10:17:02;;;;;;;38.20;12.17;;;3.00;99.90;;;;;;9952360;29;87948;-82
2020/12/09 10:22:04;;;;;;;45.10;12.67;;;3.10;99.90;;;;;;9934233;29;90681;-77
2020/12/09 10:27:05;;;;;;;39.50;12.13;;;3.20;99.90;;;;;;9940981;29;88848;-77
2020/12/09 10:32:08;;;;;;;41.10;12.63;;;3.20;99.90;;;;;;9939218;29;89918;-77
2020/12/09 10:37:13;;;;;;;34.73;11.73;;;3.20;99.90;;;;;;9931936;29;90110;-76
2020/12/09 10:42:14;;;;;;;36.50;12.03;;;3.10;99.90;;;;;;9935010;29;89033;-77
2020/12/09 10:47:17;;;;;;;38.27;12.70;;;3.10;99.90;;;;;;9947011;29;89971;-77
2020/12/09 10:52:19;;;;;;;43.37;13.13;;;3.10;99.90;;;;;;9938743;29;88821;-77
2020/12/09 10:57:21;;;;;;;39.43;11.93;;;3.10;99.90;;;;;;9931207;29;89797;-78
2020/12/09 11:02:23;;;;;;;34.13;11.97;;;3.10;99.90;;;;;;9950722;29;88840;-77
2020/12/09 11:07:25;;;;;;;38.83;13.03;;;3.00;99.90;;;;;;9928534;29;88935;-77
2020/12/09 11:12:27;;;;;;;36.10;12.67;;;2.90;99.90;;;;;;9933203;29;88302;-77
2020/12/09 11:17:30;;;;;;;43.73;12.80;;;2.90;99.90;;;;;;9937269;29;89156;-77
2020/12/09 11:22:32;;;;;;;32.77;10.93;;;2.90;99.90;;;;;;9938007;29;88806;-77
2020/12/09 11:27:33;;;;;;;30.17;9.80;;;2.90;99.90;;;;;;9929453;29;90239;-77
2020/12/09 11:32:37;;;;;;;43.97;12.00;;;2.80;99.90;;;;;;9935144;29;90374;-77
2020/12/09 11:37:39;;;;;;;30.27;9.63;;;2.90;99.90;;;;;;9929441;29;90416;-79
2020/12/09 11:42:43;;;;;;;36.27;11.20;;;3.00;99.90;;;;;;9932873;29;89102;-78
2020/12/09 11:47:46;;;;;;;46.50;13.43;;;3.10;99.90;;;;;;9933880;29;88989;-78
2020/12/09 11:52:47;;;;;;;43.83;12.33;;;3.10;99.90;;;;;;9938257;29;89372;-78
2020/12/09 11:57:49;;;;;;;36.93;10.83;;;3.10;99.90;;;;;;9933418;29;89081;-78
2020/12/09 12:02:51;;;;;;;34.40;10.87;;;3.30;99.90;;;;;;9939122;29;88335;-76
2020/12/09 12:07:53;;;;;;;32.13;11.07;;;3.30;99.90;;;;;;9929503;29;88958;-77
2020/12/09 12:12:55;;;;;;;34.70;12.27;;;3.30;99.90;;;;;;9917201;29;90362;-78
2020/12/09 12:17:57;;;;;;;31.60;10.97;;;3.40;99.90;;;;;;9931765;29;90446;-78
2020/12/09 12:22:59;;;;;;;28.77;9.83;;;3.40;99.90;;;;;;9935828;29;89259;-76
2020/12/09 12:28:00;;;;;;;26.83;9.77;;;3.30;99.90;;;;;;9936725;29;89464;-76
2020/12/09 12:33:03;;;;;;;24.73;8.40;;;3.40;99.90;;;;;;9932468;29;89249;-79
2020/12/09 12:38:04;;;;;;;19.57;6.73;;;3.30;99.90;;;;;;9948682;29;90481;-79
2020/12/09 12:43:08;;;;;;;14.53;5.50;;;3.30;99.90;;;;;;9934167;29;89421;-80
2020/12/09 12:48:12;;;;;;;12.87;5.50;;;3.40;99.90;;;;;;9944528;29;88920;-79
2020/12/09 12:53:14;;;;;;;12.80;5.33;;;3.30;99.90;;;;;;9918532;29;92018;-80
2020/12/09 12:58:15;;;;;;;13.07;5.30;;;3.20;99.90;;;;;;9950128;29;88874;-79
2020/12/09 13:03:18;;;;;;;21.53;7.80;;;3.20;99.90;;;;;;9939971;29;88943;-79
2020/12/09 13:08:22;;;;;;;23.03;8.63;;;3.10;99.90;;;;;;9950137;29;89890;-80
2020/12/09 13:13:23;;;;;;;20.93;7.90;;;3.10;99.90;;;;;;9938855;29;89061;-80
2020/12/09 13:18:26;;;;;;;31.50;9.33;;;2.90;99.90;;;;;;9944461;29;88824;-80
2020/12/09 13:23:28;;;;;;;27.47;9.87;;;2.90;99.90;;;;;;9942361;29;88939;-77
2020/12/09 13:28:29;;;;;;;28.40;9.43;;;2.90;99.90;;;;;;9940734;29;89433;-77
2020/12/09 13:33:32;;;;;;;31.17;10.37;;;2.80;99.90;;;;;;9941610;29;89126;-76
2020/12/09 13:38:33;;;;;;;25.50;8.60;;;2.80;99.90;;;;;;9935652;29;88814;-77
2020/12/09 13:43:35;;;;;;;24.50;7.97;;;2.80;99.90;;;;;;9945285;29;88519;-77
2020/12/09 13:48:37;;;;;;;19.87;7.50;;;2.80;99.90;;;;;;9933306;29;92726;-77
2020/12/09 13:53:39;;;;;;;24.83;7.53;;;2.80;99.90;;;;;;9943351;29;88803;-77
2020/12/09 13:58:41;;;;;;;19.80;7.73;;;2.70;99.90;;;;;;9937740;29;92330;-77
2020/12/09 14:03:43;;;;;;;20.33;6.87;;;2.80;99.90;;;;;;9953732;29;88734;-77
2020/12/09 14:08:45;;;;;;;18.67;6.97;;;2.80;99.90;;;;;;9938583;29;89201;-79
2020/12/09 14:13:46;;;;;;;20.17;7.10;;;2.80;99.90;;;;;;9939798;29;90048;-76
2020/12/09 14:18:50;;;;;;;15.50;6.67;;;2.80;99.90;;;;;;9937481;29;90034;-79
2020/12/09 14:23:52;;;;;;;17.10;6.70;;;2.80;99.90;;;;;;9945910;29;88804;-77
2020/12/09 14:28:53;;;;;;;21.80;7.87;;;2.80;99.90;;;;;;9939890;29;89000;-77
2020/12/09 14:33:58;;;;;;;17.67;7.13;;;2.80;99.90;;;;;;9935188;29;88689;-77
2020/12/09 14:39:00;;;;;;;19.33;7.00;;;2.70;99.90;;;;;;9938600;29;90198;-76
2020/12/09 14:44:02;;;;;;;18.33;7.27;;;2.70;99.90;;;;;;9938382;29;88889;-76
2020/12/09 14:49:04;;;;;;;15.67;6.40;;;2.70;99.90;;;;;;9938188;29;90092;-76
2020/12/09 14:54:06;;;;;;;16.07;6.70;;;2.70;99.90;;;;;;9938861;29;88974;-76
2020/12/09 14:59:07;;;;;;;16.97;7.60;;;2.60;99.90;;;;;;9939172;29;88891;-76
2020/12/09 15:04:10;;;;;;;16.37;6.40;;;2.60;99.90;;;;;;9934210;29;90468;-77
2020/12/09 15:09:12;;;;;;;19.77;6.60;;;2.60;99.90;;;;;;9940788;29;88983;-77
2020/12/09 15:14:13;;;;;;;15.33;6.47;;;2.60;99.90;;;;;;9936173;29;88961;-76
2020/12/09 15:19:16;;;;;;;21.70;7.03;;;2.50;99.90;;;;;;9939402;29;90089;-76
2020/12/09 15:24:17;;;;;;;17.20;6.63;;;2.50;99.90;;;;;;9936350;29;88252;-76
2020/12/09 15:29:19;;;;;;;16.43;6.13;;;2.50;99.90;;;;;;9937350;29;89137;-77
2020/12/09 15:34:21;;;;;;;12.73;6.40;;;2.40;99.90;;;;;;9938126;29;88712;-76
2020/12/09 15:39:23;;;;;;;19.77;7.07;;;2.40;99.90;;;;;;9934041;29;89934;-74
2020/12/09 15:44:25;;;;;;;15.30;5.73;;;2.30;99.90;;;;;;9934554;29;88780;-76
2020/12/09 15:49:28;;;;;;;19.17;6.80;;;2.30;99.90;;;;;;9940499;29;89024;-76
2020/12/09 15:54:30;;;;;;;14.67;5.90;;;2.30;99.90;;;;;;9934587;29;89373;-79
2020/12/09 15:59:31;;;;;;;17.00;6.33;;;2.30;99.90;;;;;;9948166;29;88709;-79
2020/12/09 16:04:34;;;;;;;19.50;6.67;;;2.30;99.90;;;;;;9934152;29;89331;-78
2020/12/09 16:09:35;;;;;;;20.33;7.63;;;2.30;99.90;;;;;;9950009;29;90239;-77
2020/12/09 16:14:37;;;;;;;23.57;9.00;;;2.30;99.90;;;;;;9935781;29;88301;-76
2020/12/09 16:19:39;;;;;;;24.03;8.37;;;2.30;99.90;;;;;;9916576;29;89131;-76
2020/12/09 16:24:41;;;;;;;13.73;7.23;;;2.30;99.90;;;;;;9941078;29;89064;-77
2020/12/09 16:29:43;;;;;;;18.43;6.60;;;2.30;99.90;;;;;;9940519;29;90287;-77
2020/12/09 16:34:45;;;;;;;18.97;7.97;;;2.30;99.90;;;;;;9938804;29;88850;-77
2020/12/09 16:46:19;;;;;;;17.47;6.30;;;2.30;99.90;;;;;;10144916;23;88967;-75
2020/12/09 16:51:21;;;;;;;15.03;6.40;;;2.30;99.90;;;;;;9976002;29;89490;-79
2020/12/09 16:56:23;;;;;;;15.70;6.83;;;2.30;99.90;;;;;;9977046;29;90044;-79
2020/12/09 17:01:24;;;;;;;14.97;6.10;;;2.30;99.90;;;;;;9981153;29;88811;-77
2020/12/09 17:06:27;;;;;;;17.00;6.07;;;2.30;99.90;;;;;;9999636;29;88547;-78
2020/12/09 17:11:29;;;;;;;20.60;5.97;;;2.20;99.90;;;;;;9975711;29;89411;-76
2020/12/09 17:16:31;;;;;;;17.90;7.07;;;2.30;99.90;;;;;;9971464;29;88948;-77
2020/12/09 17:21:34;;;;;;;16.43;6.90;;;2.30;99.90;;;;;;9972187;29;90991;-77
2020/12/09 17:26:35;;;;;;;16.00;7.27;;;2.30;99.90;;;;;;10897048;23;88753;-80
2020/12/09 17:31:37;;;;;;;19.90;7.67;;;2.30;99.90;;;;;;9973164;29;89772;-79
2020/12/09 17:36:41;;;;;;;22.80;7.30;;;2.20;99.90;;;;;;9995239;29;88809;-82
2020/12/09 17:41:42;;;;;;;24.67;7.77;;;2.30;99.90;;;;;;10022305;29;88343;-82
2020/12/09 17:46:44;;;;;;;25.27;7.37;;;2.20;99.90;;;;;;10023054;29;87894;-82
2020/12/09 17:51:49;;;;;;;25.73;8.27;;;2.20;99.90;;;;;;10022230;29;90178;-82
2020/12/09 17:56:51;;;;;;;36.33;8.93;;;2.20;99.90;;;;;;10026390;29;86878;-80
2020/12/09 18:01:52;;;;;;;24.87;9.07;;;2.20;99.90;;;;;;10025532;29;87564;-81
2020/12/09 18:06:55;;;;;;;20.37;8.07;;;2.20;99.90;;;;;;10024256;29;87817;-81
2020/12/09 18:11:57;;;;;;;18.70;7.50;;;2.20;99.90;;;;;;10004278;29;89696;-81
2020/12/09 18:16:58;;;;;;;22.53;7.50;;;2.20;99.90;;;;;;10023534;29;87964;-78
2020/12/09 18:22:01;;;;;;;19.00;7.67;;;2.20;99.90;;;;;;10024450;29;86888;-79
2020/12/09 18:27:03;;;;;;;16.07;6.17;;;2.10;99.90;;;;;;10023643;29;87660;-79
2020/12/09 18:32:05;;;;;;;16.30;6.83;;;2.20;99.90;;;;;;10025052;29;88724;-79
2020/12/09 18:37:07;;;;;;;17.50;7.70;;;2.20;99.90;;;;;;10026164;29;87771;-79
2020/12/09 18:42:11;;;;;;;20.00;7.10;;;2.20;99.90;;;;;;10026354;29;90287;-80
2020/12/09 18:47:12;;;;;;;19.73;7.47;;;2.30;99.90;;;;;;10023929;29;87534;-80
2020/12/09 18:52:15;;;;;;;18.97;6.67;;;2.30;99.90;;;;;;10023442;29;88637;-80
2020/12/09 18:57:16;;;;;;;19.30;6.17;;;2.30;99.90;;;;;;10019735;29;87724;-79
2020/12/09 19:02:18;;;;;;;23.53;8.17;;;2.10;99.90;;;;;;10012953;29;88181;-82
2020/12/09 19:07:21;;;;;;;20.43;7.60;;;2.00;99.90;;;;;;10015036;29;87834;-80
2020/12/09 19:12:22;;;;;;;22.10;7.37;;;2.00;99.90;;;;;;10022006;29;87684;-80
2020/12/09 19:17:24;;;;;;;16.90;7.60;;;2.00;99.90;;;;;;10022012;29;87997;-82
2020/12/09 19:22:27;;;;;;;19.27;8.00;;;2.00;99.90;;;;;;10023305;29;88062;-83
2020/12/09 19:27:29;;;;;;;22.17;7.77;;;2.00;99.90;;;;;;10017250;29;89581;-79
2020/12/09 19:32:30;;;;;;;16.70;7.20;;;2.00;99.90;;;;;;10019531;29;88042;-80
2020/12/09 19:37:40;;;;;;;21.20;7.50;;;2.00;99.90;;;;;;10018793;29;86968;-80
2020/12/09 19:42:42;;;;;;;21.07;7.20;;;2.10;99.90;;;;;;10016190;29;88388;-82
2020/12/09 19:47:43;;;;;;;19.03;7.17;;;2.10;99.90;;;;;;10016815;29;88682;-81
2020/12/09 19:52:46;;;;;;;25.57;8.80;;;2.10;99.90;;;;;;9998459;29;88891;-82
2020/12/09 19:57:47;;;;;;;24.53;8.03;;;2.10;99.90;;;;;;10015701;29;87900;-77
2020/12/09 20:02:49;;;;;;;21.20;7.60;;;2.10;99.90;;;;;;10013999;29;88976;-80
2020/12/09 20:07:52;;;;;;;25.90;8.40;;;2.20;99.90;;;;;;10023185;29;87245;-81
2020/12/09 20:12:53;;;;;;;21.73;7.93;;;2.20;99.90;;;;;;10025242;29;87862;-79
2020/12/09 20:17:55;;;;;;;23.37;8.67;;;2.20;99.90;;;;;;10007971;29;90433;-78
2020/12/09 20:23:06;;;;;;;20.50;7.97;;;2.10;99.90;;;;;;10024925;29;88089;-78
2020/12/09 20:28:10;;;;;;;24.63;8.37;;;2.10;99.90;;;;;;10028075;29;88134;-80
2020/12/09 20:33:12;;;;;;;19.03;7.63;;;2.20;99.90;;;;;;10026448;29;87939;-81
2020/12/09 20:38:17;;;;;;;24.77;7.90;;;2.20;99.90;;;;;;10029203;29;87685;-78
2020/12/09 20:43:19;;;;;;;18.90;8.00;;;2.20;99.90;;;;;;10026703;29;88365;-78
2020/12/09 20:48:21;;;;;;;20.23;7.67;;;2.20;99.90;;;;;;10023121;29;87825;-80
2020/12/09 20:53:27;;;;;;;17.07;7.23;;;2.20;99.90;;;;;;10026731;29;87685;-78
2020/12/09 20:58:28;;;;;;;18.73;7.07;;;2.20;99.90;;;;;;10022733;29;88396;-79
2020/12/09 21:03:31;;;;;;;17.47;7.73;;;2.10;99.90;;;;;;10018688;29;88219;-80
2020/12/09 21:08:34;;;;;;;19.23;7.77;;;2.20;99.90;;;;;;10016406;29;87332;-79
2020/12/09 21:13:35;;;;;;;22.87;8.17;;;2.20;99.90;;;;;;10014932;29;87840;-79
2020/12/09 21:18:37;;;;;;;18.43;7.27;;;2.20;99.90;;;;;;10022890;29;86818;-80
2020/12/09 21:23:42;;;;;;;22.37;7.60;;;2.30;99.90;;;;;;10025206;29;87164;-77
2020/12/09 21:28:44;;;;;;;19.40;7.10;;;2.30;99.90;;;;;;10023593;29;88533;-81
2020/12/09 21:33:47;;;;;;;24.40;7.90;;;2.30;99.90;;;;;;10019066;29;89595;-80
2020/12/09 21:38:50;;;;;;;23.57;7.47;;;2.30;99.90;;;;;;10021172;29;88889;-80
2020/12/09 21:43:52;;;;;;;18.53;6.90;;;2.30;99.90;;;;;;10021220;29;87984;-78
2020/12/09 21:48:54;;;;;;;18.63;7.57;;;2.30;99.90;;;;;;10021777;29;89108;-78
2020/12/09 21:53:57;;;;;;;18.80;6.53;;;2.30;99.90;;;;;;10020930;29;88270;-76
2020/12/09 21:58:59;;;;;;;18.50;7.87;;;2.30;99.90;;;;;;10021334;29;88083;-79
2020/12/09 22:04:01;;;;;;;14.93;6.53;;;2.30;99.90;;;;;;10019743;29;87805;-78
2020/12/09 22:09:04;;;;;;;16.53;7.07;;;2.30;99.90;;;;;;10019331;29;86668;-77
2020/12/09 22:14:05;;;;;;;19.47;7.93;;;2.20;99.90;;;;;;10019568;29;88525;-78
2020/12/09 22:19:07;;;;;;;16.37;6.83;;;2.20;99.90;;;;;;10006631;29;87885;-79
2020/12/09 22:24:09;;;;;;;15.97;6.17;;;2.10;99.90;;;;;;10018997;29;89077;-80
2020/12/09 22:29:14;;;;;;;20.10;7.63;;;2.10;99.90;;;;;;10019786;29;88183;-79
2020/12/09 22:34:18;;;;;;;17.80;6.70;;;2.10;99.90;;;;;;10017863;29;88723;-78
2020/12/09 22:39:20;;;;;;;13.83;6.30;;;2.10;99.90;;;;;;9999908;29;90587;-78
2020/12/09 22:44:22;;;;;;;17.20;6.20;;;2.10;99.90;;;;;;10007859;29;88705;-79
2020/12/09 22:49:24;;;;;;;16.23;6.40;;;2.10;99.90;;;;;;10010691;29;89675;-79
2020/12/09 22:54:26;;;;;;;19.10;5.97;;;2.10;99.90;;;;;;10031643;29;88241;-79
2020/12/09 22:59:28;;;;;;;14.93;5.77;;;2.00;99.90;;;;;;10030042;29;88570;-79
2020/12/09 23:04:30;;;;;;;14.80;6.20;;;1.80;99.90;;;;;;10023167;29;87538;-79
2020/12/09 23:09:32;;;;;;;16.37;6.27;;;1.80;99.90;;;;;;10029541;29;89124;-79
2020/12/09 23:14:34;;;;;;;38.93;8.37;;;1.80;99.90;;;;;;10024715;29;88975;-78
2020/12/09 23:19:36;;;;;;;32.87;8.53;;;1.80;99.90;;;;;;10021114;29;88077;-78
2020/12/09 23:24:39;;;;;;;17.47;7.43;;;1.70;99.90;;;;;;10022060;29;89841;-79
2020/12/09 23:29:40;;;;;;;56.10;8.50;;;1.70;99.90;;;;;;10026624;29;87585;-79
2020/12/09 23:34:42;;;;;;;144.57;9.43;;;1.60;99.90;;;;;;10026250;29;87788;-78
2020/12/09 23:39:45;;;;;;;63.60;7.77;;;1.60;99.90;;;;;;10022586;29;88992;-79
2020/12/09 23:44:47;;;;;;;32.00;7.80;;;1.50;99.90;;;;;;10021956;29;87343;-79
2020/12/09 23:49:48;;;;;;;59.50;8.57;;;1.50;99.90;;;;;;10029912;29;86936;-79
2020/12/09 23:54:51;;;;;;;42.97;8.50;;;1.50;99.90;;;;;;10021253;29;87718;-79
2020/12/09 23:59:52;;;;;;;30.10;7.20;;;1.50;99.90;;;;;;10027405;29;87613;-79
